Time;durP1;ratioP1;P1;durP2;ratioP2;P2;SDS_P1;SDS_P2;PMS_P1;PMS_P2;Temp;Humidity;BMP_temperature;BMP_pressure;BME280_temperature;BME280_humidity;BME280_pressure;Samples;Min_cycle;Max_cycle;Signal;HPM_P1;HPM_P2
2023/05/31 00:01:32;;;;;;;;;6.00;5.00;;;;;;;;5053237;28;8801;-74
2023/05/31 00:03:57;;;;;;;;;4.00;4.00;;;;;;;;5053179;28;8777;-75
2023/05/31 00:06:22;;;;;;;;;6.00;6.00;;;;;;;;5052632;28;9519;-74
2023/05/31 00:08:47;;;;;;;;;8.25;5.75;;;;;;;;5051772;28;8813;-74
2023/05/31 00:11:12;;;;;;;;;6.50;6.50;;;;;;;;5053324;28;8809;-74
2023/05/31 00:13:41;;;;;;;;;5.00;5.00;;;;;;;;5052918;28;9538;-75
2023/05/31 00:16:06;;;;;;;;;6.25;5.00;;;;;;;;5053084;28;8793;-74
2023/05/31 00:18:32;;;;;;;;;6.25;5.75;;;;;;;;5052994;28;10602;-75
2023/05/31 00:20:57;;;;;;;;;6.00;6.00;;;;;;;;5051314;28;9581;-75
2023/05/31 00:23:22;;;;;;;;;7.25;7.25;;;;;;;;5052419;28;8852;-74
2023/05/31 00:25:47;;;;;;;;;7.50;6.00;;;;;;;;5052784;28;8801;-74
2023/05/31 00:28:13;;;;;;;;;5.75;5.75;;;;;;;;5052632;28;8825;-74
2023/05/31 00:30:38;;;;;;;;;6.50;5.00;;;;;;;;5051468;28;8821;-74
2023/05/31 00:33:04;;;;;;;;;5.50;5.25;;;;;;;;5052636;28;8834;-74
2023/05/31 00:35:29;;;;;;;;;7.50;5.25;;;;;;;;5050990;28;8812;-74
2023/05/31 00:37:55;;;;;;;;;9.00;6.00;;;;;;;;5052601;28;9816;-74
2023/05/31 00:40:20;;;;;;;;;7.25;7.25;;;;;;;;5051763;28;8825;-73
2023/05/31 00:42:45;;;;;;;;;9.50;5.00;;;;;;;;5052392;28;8973;-73
2023/05/31 00:45:10;;;;;;;;;8.50;6.00;;;;;;;;5052507;28;8797;-73
2023/05/31 00:47:36;;;;;;;;;4.25;3.00;;;;;;;;5052512;28;8799;-74
2023/05/31 00:50:01;;;;;;;;;10.75;7.00;;;;;;;;5052202;28;8902;-73
2023/05/31 00:52:27;;;;;;;;;8.00;6.00;;;;;;;;5050793;28;8842;-74
2023/05/31 00:54:53;;;;;;;;;5.00;5.00;;;;;;;;5052219;28;8805;-74
2023/05/31 00:57:18;;;;;;;;;5.00;5.00;;;;;;;;5052214;28;9659;-75
2023/05/31 00:59:43;;;;;;;;;6.75;6.00;;;;;;;;5051780;28;8817;-74
2023/05/31 01:02:11;;;;;;;;;4.25;4.25;;;;;;;;5052166;28;8809;-74
2023/05/31 01:04:36;;;;;;;;;5.00;5.00;;;;;;;;5052200;28;8874;-74
2023/05/31 01:07:01;;;;;;;;;4.50;4.50;;;;;;;;5051869;28;9789;-74
2023/05/31 01:09:28;;;;;;;;;9.00;8.00;;;;;;;;5051941;28;8867;-75
2023/05/31 01:12:12;;;;;;;;;6.50;6.00;;;;;;;;5052487;22;9014;-71
2023/05/31 01:14:46;;;;;;;;;6.75;6.75;;;;;;;;5032572;28;9891;-70
2023/05/31 01:17:37;;;;;;;;;8.25;7.00;;;;;;;;5028200;28;10803;-70
2023/05/31 01:20:08;;;;;;;;;9.00;6.50;;;;;;;;5026067;28;10272;-72
2023/05/31 01:22:52;;;;;;;;;5.00;4.00;;;;;;;;5028871;28;10165;-70
2023/05/31 01:25:23;;;;;;;;;9.00;8.00;;;;;;;;5029471;28;10118;-70
2023/05/31 01:27:49;;;;;;;;;8.25;8.25;;;;;;;;5030603;28;10227;-71
2023/05/31 01:30:16;;;;;;;;;9.00;9.00;;;;;;;;5030697;28;10209;-70
2023/05/31 01:32:42;;;;;;;;;9.00;9.00;;;;;;;;5030596;28;10128;-71
2023/05/31 01:35:09;;;;;;;;;7.50;7.50;;;;;;;;5030047;28;10062;-71
2023/05/31 01:37:34;;;;;;;;;13.00;12.50;;;;;;;;5030705;28;8808;-71
2023/05/31 01:39:59;;;;;;;;;8.25;7.00;;;;;;;;5029393;28;10191;-70
2023/05/31 01:42:25;;;;;;;;;10.25;9.00;;;;;;;;5030401;28;9420;-70
2023/05/31 01:44:51;;;;;;;;;9.50;8.00;;;;;;;;5030627;28;8800;-70
2023/05/31 01:47:17;;;;;;;;;10.25;8.50;;;;;;;;5030436;28;9964;-70
2023/05/31 01:49:42;;;;;;;;;8.00;8.00;;;;;;;;5031777;28;8852;-70
2023/05/31 01:52:10;;;;;;;;;10.25;10.00;;;;;;;;5029549;28;9854;-72
2023/05/31 01:54:36;;;;;;;;;13.00;10.00;;;;;;;;5029702;28;8800;-71
2023/05/31 01:57:03;;;;;;;;;8.00;8.00;;;;;;;;5030153;28;9912;-71
2023/05/31 01:59:29;;;;;;;;;10.75;9.75;;;;;;;;5030284;28;8926;-71
2023/05/31 02:01:54;;;;;;;;;12.00;10.00;;;;;;;;5030300;28;10156;-71
2023/05/31 02:04:20;;;;;;;;;10.00;10.00;;;;;;;;5030212;28;9519;-71
2023/05/31 02:06:45;;;;;;;;;11.00;9.00;;;;;;;;5029844;28;8827;-69
2023/05/31 02:09:10;;;;;;;;;13.75;11.75;;;;;;;;5030049;28;8854;-69
2023/05/31 02:11:35;;;;;;;;;12.00;9.25;;;;;;;;5029835;28;8831;-69
2023/05/31 02:14:01;;;;;;;;;9.00;8.50;;;;;;;;5028321;28;8831;-70
2023/05/31 02:16:26;;;;;;;;;11.00;10.00;;;;;;;;5029898;28;8855;-70
2023/05/31 02:18:51;;;;;;;;;11.00;10.25;;;;;;;;5028617;28;8816;-69
2023/05/31 02:21:16;;;;;;;;;10.00;9.00;;;;;;;;5031122;28;8814;-70
2023/05/31 02:23:42;;;;;;;;;10.75;10.75;;;;;;;;5029727;28;8913;-71
2023/05/31 02:26:07;;;;;;;;;10.00;7.25;;;;;;;;5028334;28;8831;-71
2023/05/31 02:28:33;;;;;;;;;9.00;9.00;;;;;;;;5029561;28;9032;-71
2023/05/31 02:30:59;;;;;;;;;8.75;8.75;;;;;;;;5029571;28;8804;-71
2023/05/31 02:33:25;;;;;;;;;8.75;8.00;;;;;;;;5029181;28;8825;-71
2023/05/31 02:35:50;;;;;;;;;9.75;9.75;;;;;;;;5029045;28;10166;-71
2023/05/31 02:38:16;;;;;;;;;7.75;7.75;;;;;;;;5029547;28;8853;-70
2023/05/31 02:40:41;;;;;;;;;10.50;10.50;;;;;;;;5028120;28;8837;-71
2023/05/31 02:43:06;;;;;;;;;10.00;10.00;;;;;;;;5028000;28;8816;-71
2023/05/31 02:45:31;;;;;;;;;9.50;9.50;;;;;;;;5029380;28;9596;-71
2023/05/31 02:48:01;;;;;;;;;9.75;9.00;;;;;;;;5029305;28;8788;-71
2023/05/31 02:50:26;;;;;;;;;6.75;6.75;;;;;;;;5030236;28;8916;-72
2023/05/31 02:52:52;;;;;;;;;9.50;9.50;;;;;;;;5029129;28;11068;-71
2023/05/31 02:55:17;;;;;;;;;10.75;10.00;;;;;;;;5029238;28;8792;-72
2023/05/31 02:57:43;;;;;;;;;13.25;10.75;;;;;;;;5029378;28;8800;-71
2023/05/31 03:00:12;;;;;;;;;9.75;9.75;;;;;;;;5029268;28;8819;-71
2023/05/31 03:02:38;;;;;;;;;10.50;10.25;;;;;;;;5029143;28;8792;-71
2023/05/31 03:05:04;;;;;;;;;8.50;8.00;;;;;;;;5029006;28;10373;-71
2023/05/31 03:07:30;;;;;;;;;10.00;9.25;;;;;;;;5026421;28;8819;-71
2023/05/31 03:09:55;;;;;;;;;10.50;10.50;;;;;;;;5026839;28;10314;-72
2023/05/31 03:12:20;;;;;;;;;15.75;9.25;;;;;;;;5029220;28;8804;-72
2023/05/31 03:14:46;;;;;;;;;10.25;10.00;;;;;;;;5027722;28;8824;-71
2023/05/31 03:17:11;;;;;;;;;11.25;11.25;;;;;;;;5029005;28;8914;-71
2023/05/31 03:19:36;;;;;;;;;12.50;11.75;;;;;;;;5030535;28;8898;-71
2023/05/31 03:22:02;;;;;;;;;11.00;11.00;;;;;;;;5028864;28;8820;-72
2023/05/31 03:24:27;;;;;;;;;12.00;12.00;;;;;;;;5028971;28;8800;-71
2023/05/31 03:26:54;;;;;;;;;12.50;9.25;;;;;;;;5028945;28;9546;-72
2023/05/31 03:29:20;;;;;;;;;9.75;9.75;;;;;;;;5028596;28;8916;-72
2023/05/31 03:31:45;;;;;;;;;11.25;9.00;;;;;;;;5028989;28;10680;-71
2023/05/31 03:34:10;;;;;;;;;12.25;10.00;;;;;;;;5028998;28;9636;-71
2023/05/31 03:36:36;;;;;;;;;13.25;11.50;;;;;;;;5027506;28;8800;-72
2023/05/31 03:39:02;;;;;;;;;12.00;10.75;;;;;;;;5028921;28;8995;-72
2023/05/31 03:41:27;;;;;;;;;13.25;12.75;;;;;;;;5028900;28;10676;-72
2023/05/31 03:43:52;;;;;;;;;11.00;10.25;;;;;;;;5028458;28;8910;-72
2023/05/31 03:46:18;;;;;;;;;14.00;13.75;;;;;;;;5028818;28;8826;-71
2023/05/31 03:48:43;;;;;;;;;11.25;11.25;;;;;;;;5028634;28;8967;-71
2023/05/31 03:51:08;;;;;;;;;14.50;13.75;;;;;;;;5030088;28;8823;-71
2023/05/31 03:53:34;;;;;;;;;11.25;11.25;;;;;;;;5028588;28;8800;-71
2023/05/31 03:55:59;;;;;;;;;11.00;11.00;;;;;;;;5028762;28;8784;-71
2023/05/31 03:58:24;;;;;;;;;13.75;10.75;;;;;;;;5028715;28;8804;-71
2023/05/31 04:00:50;;;;;;;;;13.25;13.25;;;;;;;;5028820;28;9523;-71
2023/05/31 04:03:16;;;;;;;;;10.25;9.00;;;;;;;;5028161;28;8808;-71
2023/05/31 04:05:41;;;;;;;;;11.75;11.50;;;;;;;;5026856;28;10665;-72
2023/05/31 04:08:06;;;;;;;;;11.25;10.50;;;;;;;;5029060;28;8839;-72
2023/05/31 04:10:32;;;;;;;;;14.25;12.75;;;;;;;;5028408;28;8835;-72
2023/05/31 04:12:57;;;;;;;;;14.00;12.25;;;;;;;;5028257;28;8780;-72
2023/05/31 04:15:22;;;;;;;;;9.25;9.25;;;;;;;;5030029;28;8815;-72
2023/05/31 04:17:48;;;;;;;;;16.75;13.00;;;;;;;;5033165;28;8918;-72
2023/05/31 04:20:13;;;;;;;;;11.50;11.00;;;;;;;;5034678;28;9551;-71
2023/05/31 04:22:38;;;;;;;;;10.50;9.25;;;;;;;;5032455;28;8901;-72
2023/05/31 04:25:05;;;;;;;;;15.00;11.25;;;;;;;;5033285;28;9620;-71
2023/05/31 04:27:32;;;;;;;;;12.75;11.50;;;;;;;;5033141;28;8791;-71
2023/05/31 04:29:58;;;;;;;;;12.00;11.50;;;;;;;;5033123;28;10722;-71
2023/05/31 04:32:23;;;;;;;;;16.00;14.00;;;;;;;;5032888;28;10714;-71
2023/05/31 04:34:52;;;;;;;;;15.75;15.50;;;;;;;;5033184;28;8878;-71
2023/05/31 04:37:17;;;;;;;;;15.00;14.75;;;;;;;;5032607;28;8815;-71
2023/05/31 04:39:42;;;;;;;;;16.00;13.50;;;;;;;;5033035;28;10822;-71
2023/05/31 04:42:11;;;;;;;;;16.00;13.75;;;;;;;;5032852;28;9543;-72
2023/05/31 04:44:36;;;;;;;;;18.00;15.50;;;;;;;;5032972;28;8862;-71
2023/05/31 04:47:01;;;;;;;;;15.50;14.50;;;;;;;;5032928;28;10736;-71
2023/05/31 04:49:27;;;;;;;;;15.00;14.00;;;;;;;;5034478;28;9539;-70
2023/05/31 04:51:52;;;;;;;;;15.25;13.00;;;;;;;;5052444;28;8793;-71
2023/05/31 04:54:18;;;;;;;;;13.75;13.75;;;;;;;;5052648;28;8781;-70
2023/05/31 04:56:43;;;;;;;;;14.75;13.75;;;;;;;;5052357;28;8801;-70
2023/05/31 04:59:08;;;;;;;;;18.00;16.75;;;;;;;;5052707;28;8820;-71
2023/05/31 05:01:33;;;;;;;;;14.50;12.50;;;;;;;;5040064;28;8835;-70
2023/05/31 05:03:59;;;;;;;;;14.50;14.00;;;;;;;;5032583;28;8869;-72
2023/05/31 05:06:26;;;;;;;;;17.25;14.00;;;;;;;;5032464;28;8792;-73
2023/05/31 05:08:51;;;;;;;;;15.00;14.50;;;;;;;;5032131;28;10465;-72
2023/05/31 05:11:16;;;;;;;;;14.25;13.75;;;;;;;;5032108;28;10495;-70
2023/05/31 05:13:42;;;;;;;;;18.75;16.50;;;;;;;;5031956;28;8788;-69
2023/05/31 05:16:08;;;;;;;;;19.25;16.00;;;;;;;;5031972;28;8859;-68
2023/05/31 05:18:33;;;;;;;;;17.25;14.50;;;;;;;;5032335;28;11037;-71
2023/05/31 05:20:58;;;;;;;;;16.50;14.00;;;;;;;;5045017;28;8844;-69
2023/05/31 05:23:23;;;;;;;;;20.25;18.00;;;;;;;;5052466;28;8882;-69
2023/05/31 05:25:49;;;;;;;;;19.75;14.50;;;;;;;;5052278;28;8793;-68
2023/05/31 05:28:14;;;;;;;;;17.25;16.00;;;;;;;;5052059;28;8847;-69
2023/05/31 05:30:40;;;;;;;;;15.00;13.00;;;;;;;;5052088;28;8785;-73
2023/05/31 05:33:05;;;;;;;;;16.50;15.50;;;;;;;;5050212;28;8821;-70
2023/05/31 05:35:31;;;;;;;;;15.25;14.25;;;;;;;;5051906;28;8801;-71
2023/05/31 05:37:57;;;;;;;;;14.50;12.00;;;;;;;;5051936;28;8831;-70
2023/05/31 05:40:22;;;;;;;;;13.50;13.00;;;;;;;;5051998;28;8819;-71
2023/05/31 05:42:48;;;;;;;;;17.75;14.50;;;;;;;;5051881;28;10199;-73
2023/05/31 05:45:13;;;;;;;;;13.25;12.75;;;;;;;;5049996;28;8836;-73
2023/05/31 05:47:38;;;;;;;;;17.50;15.75;;;;;;;;5029829;28;8888;-73
2023/05/31 05:50:04;;;;;;;;;18.00;15.50;;;;;;;;5038223;28;8840;-75
2023/05/31 06:03:08;;;;;;;;;15.25;14.50;;;;;;;;5104788;27;13425;-73
2023/05/31 11:13:55;;;;;;;;;10.25;8.00;;;;;;;;5166601;27;13289;-73
2023/05/31 11:16:20;;;;;;;;;10.00;10.00;;;;;;;;5130582;27;8845;-72
2023/05/31 11:18:46;;;;;;;;;9.00;9.00;;;;;;;;5149024;27;8778;-71
2023/05/31 11:21:32;;;;;;;;;10.00;10.00;;;;;;;;5146632;27;8849;-72
2023/05/31 11:23:57;;;;;;;;;10.75;10.75;;;;;;;;5148395;27;8809;-72
2023/05/31 11:26:22;;;;;;;;;11.00;11.00;;;;;;;;5138163;27;8841;-72
2023/05/31 11:28:58;;;;;;;;;11.00;10.00;;;;;;;;5137377;27;8794;-75
2023/05/31 11:31:41;;;;;;;;;12.75;11.25;;;;;;;;5146410;27;8817;-74
2023/05/31 11:34:25;;;;;;;;;9.75;9.75;;;;;;;;5148498;27;8793;-74
2023/05/31 11:36:51;;;;;;;;;9.25;9.00;;;;;;;;5130482;27;8866;-72
2023/05/31 11:39:16;;;;;;;;;12.33;11.67;;;;;;;;5148451;27;8785;-72
2023/05/31 11:41:43;;;;;;;;;12.33;10.67;;;;;;;;5146232;27;8854;-72
2023/05/31 11:44:10;;;;;;;;;9.00;9.00;;;;;;;;5129679;27;8815;-72
2023/05/31 11:46:39;;;;;;;;;12.50;12.50;;;;;;;;5148371;27;8777;-72
2023/05/31 11:49:04;;;;;;;;;12.00;11.00;;;;;;;;5148426;27;8778;-72
2023/05/31 11:51:30;;;;;;;;;12.67;11.67;;;;;;;;5145866;27;8821;-70
2023/05/31 11:53:56;;;;;;;;;13.00;10.67;;;;;;;;5148400;27;8789;-71
2023/05/31 11:56:28;;;;;;;;;9.50;9.50;;;;;;;;5147680;27;8915;-70
2023/05/31 11:58:56;;;;;;;;;10.00;10.00;;;;;;;;5147768;27;8904;-69
2023/05/31 12:01:22;;;;;;;;;10.00;10.00;;;;;;;;5146013;27;8832;-72
2023/05/31 12:03:47;;;;;;;;;12.00;12.00;;;;;;;;5148172;27;8814;-73
2023/05/31 12:06:12;;;;;;;;;10.00;10.00;;;;;;;;5145910;27;8774;-71
2023/05/31 12:08:37;;;;;;;;;13.00;12.00;;;;;;;;5126069;27;8810;-67
2023/05/31 12:11:03;;;;;;;;;14.33;10.67;;;;;;;;5144145;27;8921;-70
2023/05/31 12:13:29;;;;;;;;;11.00;11.00;;;;;;;;5146291;27;8968;-69
2023/05/31 12:15:55;;;;;;;;;9.00;8.67;;;;;;;;5146145;27;9662;-70
2023/05/31 12:18:22;;;;;;;;;11.00;11.00;;;;;;;;5146444;27;8824;-71
2023/05/31 12:20:48;;;;;;;;;11.50;11.50;;;;;;;;5144112;27;8810;-72
2023/05/31 12:23:14;;;;;;;;;10.00;9.00;;;;;;;;5142484;27;8813;-73
2023/05/31 12:25:43;;;;;;;;;13.50;13.00;;;;;;;;5129309;27;8797;-72
2023/05/31 12:28:10;;;;;;;;;14.00;13.50;;;;;;;;5132164;27;8816;-75
2023/05/31 12:30:41;;;;;;;;;12.50;11.50;;;;;;;;5130606;27;9001;-70
2023/05/31 12:33:08;;;;;;;;;14.75;13.00;;;;;;;;5132108;27;8817;-73
2023/05/31 12:35:39;;;;;;;;;12.50;12.50;;;;;;;;5132011;27;8786;-72
2023/05/31 12:38:05;;;;;;;;;12.75;11.25;;;;;;;;5132442;27;8867;-68
2023/05/31 12:40:30;;;;;;;;;13.00;13.00;;;;;;;;5130108;27;8801;-72
2023/05/31 12:43:02;;;;;;;;;10.00;10.00;;;;;;;;5131748;27;8797;-69
2023/05/31 12:45:27;;;;;;;;;11.25;11.25;;;;;;;;5131996;27;8828;-67
2023/05/31 12:48:19;;;;;;;;;14.00;12.67;;;;;;;;5130944;27;8778;-68
2023/05/31 12:50:45;;;;;;;;;13.00;12.00;;;;;;;;5127854;27;8817;-69
2023/05/31 12:53:10;;;;;;;;;11.00;11.00;;;;;;;;5128584;27;9590;-70
2023/05/31 12:55:38;;;;;;;;;15.00;14.00;;;;;;;;5130787;27;8802;-69
2023/05/31 12:58:07;;;;;;;;;17.00;15.00;;;;;;;;5128546;27;8796;-68
2023/05/31 13:00:33;;;;;;;;;13.33;12.00;;;;;;;;5127833;27;8945;-69
2023/05/31 13:02:58;;;;;;;;;16.33;15.00;;;;;;;;5131969;27;9043;-73
2023/05/31 13:05:25;;;;;;;;;10.00;10.00;;;;;;;;5132526;27;8809;-84
2023/05/31 13:07:51;;;;;;;;;16.67;15.00;;;;;;;;5113795;27;8900;-75
2023/05/31 13:10:16;;;;;;;;;17.33;15.67;;;;;;;;5129888;27;9645;-71
2023/05/31 13:12:41;;;;;;;;;15.00;14.67;;;;;;;;5131006;27;8890;-68
2023/05/31 13:15:07;;;;;;;;;14.33;14.00;;;;;;;;5131400;27;8802;-69
2023/05/31 13:17:33;;;;;;;;;15.33;14.67;;;;;;;;5131624;27;8952;-71
2023/05/31 13:19:58;;;;;;;;;18.33;16.00;;;;;;;;5126954;27;8840;-71
2023/05/31 13:22:24;;;;;;;;;15.33;14.00;;;;;;;;5128635;27;9038;-71
2023/05/31 13:24:49;;;;;;;;;15.00;15.00;;;;;;;;5131202;27;8785;-71
2023/05/31 13:27:15;;;;;;;;;14.33;14.33;;;;;;;;5131091;27;8905;-72
2023/05/31 13:29:40;;;;;;;;;11.67;11.67;;;;;;;;5129756;27;8813;-71
2023/05/31 13:32:05;;;;;;;;;16.33;13.67;;;;;;;;5130822;27;8826;-72
2023/05/31 13:34:30;;;;;;;;;14.00;14.00;;;;;;;;5130854;27;8819;-72
2023/05/31 13:36:56;;;;;;;;;14.67;13.67;;;;;;;;5112035;27;8798;-71
2023/05/31 13:39:22;;;;;;;;;13.67;12.00;;;;;;;;5112524;27;9532;-69
2023/05/31 13:41:47;;;;;;;;;12.33;11.00;;;;;;;;5127005;27;8805;-69
2023/05/31 13:44:15;;;;;;;;;10.67;10.67;;;;;;;;5129166;27;8870;-69
2023/05/31 13:46:41;;;;;;;;;10.67;10.67;;;;;;;;5128217;27;8831;-70
2023/05/31 13:49:06;;;;;;;;;21.33;18.33;;;;;;;;5130532;27;8871;-69
2023/05/31 13:51:32;;;;;;;;;17.00;14.67;;;;;;;;5126667;27;8853;-70
2023/05/31 13:53:57;;;;;;;;;14.33;12.67;;;;;;;;5124016;27;8802;-69
2023/05/31 13:56:22;;;;;;;;;14.00;12.67;;;;;;;;5129733;27;8976;-72
2023/05/31 13:58:48;;;;;;;;;17.33;16.00;;;;;;;;5130994;27;8777;-72
2023/05/31 14:01:13;;;;;;;;;14.67;14.33;;;;;;;;5128592;27;8786;-73
2023/05/31 14:03:39;;;;;;;;;12.33;11.33;;;;;;;;5130013;27;8844;-73
2023/05/31 14:06:05;;;;;;;;;16.00;12.00;;;;;;;;5127889;27;8836;-72
2023/05/31 14:08:30;;;;;;;;;16.00;15.00;;;;;;;;5130248;27;9785;-72
2023/05/31 14:10:55;;;;;;;;;15.00;13.67;;;;;;;;5130011;27;8786;-72
2023/05/31 14:13:21;;;;;;;;;14.00;12.67;;;;;;;;5129610;27;8834;-73
2023/05/31 14:15:47;;;;;;;;;14.00;13.67;;;;;;;;5125958;27;8798;-72
2023/05/31 14:18:12;;;;;;;;;11.00;10.25;;;;;;;;5111720;27;8906;-72
2023/05/31 14:20:38;;;;;;;;;11.67;11.33;;;;;;;;5129942;27;8781;-72
2023/05/31 14:23:04;;;;;;;;;11.67;11.00;;;;;;;;5129988;27;8848;-72
2023/05/31 14:25:30;;;;;;;;;10.75;10.75;;;;;;;;5129846;27;8865;-74
2023/05/31 14:27:55;;;;;;;;;12.00;12.00;;;;;;;;5109363;27;8812;-73
2023/05/31 14:30:20;;;;;;;;;9.00;9.00;;;;;;;;5107449;27;8810;-74
2023/05/31 14:32:46;;;;;;;;;12.33;11.33;;;;;;;;5129395;27;8829;-72
2023/05/31 14:35:12;;;;;;;;;10.33;9.33;;;;;;;;5130098;27;8801;-72
2023/05/31 14:37:38;;;;;;;;;11.25;8.50;;;;;;;;5130507;27;9512;-72
2023/05/31 14:40:03;;;;;;;;;10.00;10.00;;;;;;;;5130593;27;8829;-72
2023/05/31 14:42:28;;;;;;;;;8.67;8.67;;;;;;;;5130507;27;8894;-72
2023/05/31 14:44:55;;;;;;;;;9.67;9.00;;;;;;;;5130524;27;8734;-72
2023/05/31 14:47:20;;;;;;;;;11.33;11.00;;;;;;;;5109092;27;8990;-71
2023/05/31 14:49:45;;;;;;;;;14.00;12.67;;;;;;;;5129890;27;9147;-71
2023/05/31 14:52:10;;;;;;;;;11.33;11.33;;;;;;;;5130202;27;9906;-72
2023/05/31 14:54:36;;;;;;;;;12.00;11.00;;;;;;;;5130173;27;8770;-72
2023/05/31 14:57:02;;;;;;;;;12.33;11.00;;;;;;;;5130194;27;8886;-70
2023/05/31 14:59:28;;;;;;;;;11.00;11.00;;;;;;;;5130625;27;8801;-68
2023/05/31 15:01:54;;;;;;;;;9.00;8.67;;;;;;;;5130676;27;8792;-71
2023/05/31 15:04:19;;;;;;;;;11.67;11.67;;;;;;;;5130644;27;8792;-68
2023/05/31 15:06:44;;;;;;;;;11.00;11.00;;;;;;;;5111920;27;8793;-69
2023/05/31 15:09:10;;;;;;;;;11.33;10.67;;;;;;;;5131299;27;8777;-68
2023/05/31 15:11:36;;;;;;;;;11.00;10.33;;;;;;;;5131359;27;8865;-68
2023/05/31 15:14:02;;;;;;;;;15.00;12.00;;;;;;;;5113094;27;8809;-68
2023/05/31 15:16:28;;;;;;;;;9.75;9.75;;;;;;;;5131547;27;8813;-69
2023/05/31 15:18:53;;;;;;;;;10.00;9.00;;;;;;;;5131392;27;8778;-74
2023/05/31 15:21:19;;;;;;;;;12.33;12.33;;;;;;;;5103091;27;8818;-70
2023/05/31 15:23:44;;;;;;;;;10.33;9.00;;;;;;;;5120470;28;8819;-68
2023/05/31 15:26:10;;;;;;;;;13.00;11.00;;;;;;;;5125168;27;8801;-68
2023/05/31 15:28:35;;;;;;;;;9.33;9.00;;;;;;;;5110784;27;8805;-67
2023/05/31 15:31:08;;;;;;;;;13.67;11.33;;;;;;;;5110654;27;9567;-67
2023/05/31 15:33:33;;;;;;;;;13.50;10.75;;;;;;;;5129273;27;8813;-68
2023/05/31 15:35:58;;;;;;;;;9.33;9.33;;;;;;;;5121979;28;8830;-67
2023/05/31 15:38:23;;;;;;;;;10.00;9.33;;;;;;;;5123925;27;8802;-67
2023/05/31 15:40:49;;;;;;;;;9.67;9.33;;;;;;;;5129182;27;8813;-67
2023/05/31 15:43:14;;;;;;;;;10.67;10.00;;;;;;;;5129725;27;8882;-67
2023/05/31 15:45:40;;;;;;;;;10.00;10.00;;;;;;;;5131220;27;8781;-67
2023/05/31 15:48:05;;;;;;;;;10.00;10.00;;;;;;;;5095472;27;8793;-67
